Řízení letového provozu České republiky
Letiste: LKPR Aktualizace: 19.02.2018 12:04:05  UTC
 METAR LKPR 19.02. 12:00 ...
METAR LKPR 191200Z 10006KT 050V140 CAVOK 01/M06 Q1019 NOSIG=
 TAF LKPR 19.02. 11:00 ...
TAF LKPR 191100Z 1912/2018 12006KT CAVOK      TEMPO 1912/1922 9999 SCT030      BECMG 2005/2008 9999 BKN030      TEMPO 2008/2013 -SN BKN020      BECMG 2013/2016 03005KT CAVOK=